Century Pearl — 3ERP4 — position and weather

sailwx.info

Track history (hours):
 
Tides and Currents Weather Stations Pressure Air Temp Water Temp Dewpoint Dewpoint Depression Visibility Wind Speed Wind Dir Waves Ship Positions

Century Pearl

Last reported at 2017-Nov-19 17:17 UTC. Time now 2017-Nov-20 12:04 UTC.
Position N 21°54' E 114°21'.

Length 137 m; draft 7.3 m.

Type: Cargo ship. MMSI: 370126000.

Date/timePositionNaut miles runAvg speedWind from/ knotsBaromVisibWave heightAir tempDewpointWater temp
2017-Nov-19 17:17N 21°54' E 114°21'511.0
2017-Nov-19 16:51N 21°58' E 114°22'511.0
2017-Nov-19 16:25N 22°03' E 114°24'4 8.9
2017-Nov-19 16:00N 22°06' E 114°22'3 0.4
2017-Nov-19 06:47N 22°08' E 114°19'311.2
2017-Nov-19 06:30N 22°07' E 114°22'611.5
2017-Nov-19 06:00N 22°07' E 114°28'611.4
2017-Nov-19 05:30N 22°07' E 114°34'611.2
2017-Nov-19 05:00N 22°06' E 114°40'611.4
2017-Nov-19 04:28N 22°06' E 114°47'511.1
2017-Nov-19 04:00N 22°05' E 114°53'  
Track history (hours):
 
Tides and Currents Weather Stations Pressure Air Temp Water Temp Dewpoint Dewpoint Depression Visibility Wind Speed Wind Dir Waves Ship Positions

Century Pearl

Last reported at 2017-Nov-19 17:17 UTC. Time now 2017-Nov-20 12:04 UTC.
Position N 21°54' E 114°21'.

Length 137 m; draft 7.3 m.

Type: Cargo ship. MMSI: 370126000.

Date/timePositionNaut miles runAvg speedWind from/ knotsBaromVisibWave heightAir tempDewpointWater temp
2017-Nov-19 17:17N 21°54' E 114°21'511.0
2017-Nov-19 16:51N 21°58' E 114°22'511.0
2017-Nov-19 16:25N 22°03' E 114°24'4 8.9
2017-Nov-19 16:00N 22°06' E 114°22'3 0.4
2017-Nov-19 06:47N 22°08' E 114°19'311.2
2017-Nov-19 06:30N 22°07' E 114°22'611.5
2017-Nov-19 06:00N 22°07' E 114°28'611.4
2017-Nov-19 05:30N 22°07' E 114°34'611.2
2017-Nov-19 05:00N 22°06' E 114°40'611.4
2017-Nov-19 04:28N 22°06' E 114°47'511.1
2017-Nov-19 04:00N 22°05' E 114°53'  

Dump ship's entire track history